sensor_id;sensor_type;location;lat;lon;timestamp;temperature;humidity
1055;DHT22;516;51.482;7.120;2023-04-16T00:05:04;8.00;99.90
1055;DHT22;516;51.482;7.120;2023-04-16T00:10:54;8.00;99.90
1055;DHT22;516;51.482;7.120;2023-04-16T00:16:42;8.10;99.90
1055;DHT22;516;51.482;7.120;2023-04-16T00:22:30;8.10;99.90
1055;DHT22;516;51.482;7.120;2023-04-16T00:28:18;8.10;99.90
1055;DHT22;516;51.482;7.120;2023-04-16T00:43:59;8.10;99.90
1055;DHT22;516;51.482;7.120;2023-04-16T00:49:46;8.10;99.90
1055;DHT22;516;51.482;7.120;2023-04-16T00:55:35;8.10;99.90
1055;DHT22;516;51.482;7.120;2023-04-16T01:01:23;8.10;99.90
1055;DHT22;516;51.482;7.120;2023-04-16T01:07:10;8.10;99.90
1055;DHT22;516;51.482;7.120;2023-04-16T01:12:58;8.10;99.90
1055;DHT22;516;51.482;7.120;2023-04-16T01:18:46;8.10;99.90
1055;DHT22;516;51.482;7.120;2023-04-16T01:24:34;8.10;99.90
1055;DHT22;516;51.482;7.120;2023-04-16T01:30:22;8.10;99.90
1055;DHT22;516;51.482;7.120;2023-04-16T01:36:04;8.20;99.90
1055;DHT22;516;51.482;7.120;2023-04-16T01:41:52;8.20;99.90
1055;DHT22;516;51.482;7.120;2023-04-16T01:47:39;8.20;99.90
1055;DHT22;516;51.482;7.120;2023-04-16T01:53:27;8.20;99.90
1055;DHT22;516;51.482;7.120;2023-04-16T01:59:15;8.20;99.90
1055;DHT22;516;51.482;7.120;2023-04-16T02:05:03;8.30;99.90
1055;DHT22;516;51.482;7.120;2023-04-16T02:10:50;8.30;99.90
1055;DHT22;516;51.482;7.120;2023-04-16T02:16:38;8.30;99.90
1055;DHT22;516;51.482;7.120;2023-04-16T02:22:26;8.30;99.90
1055;DHT22;516;51.482;7.120;2023-04-16T02:28:15;8.30;99.90
1055;DHT22;516;51.482;7.120;2023-04-16T02:43:56;8.40;99.90
1055;DHT22;516;51.482;7.120;2023-04-16T02:49:44;8.50;99.90
1055;DHT22;516;51.482;7.120;2023-04-16T02:55:32;8.50;99.90
1055;DHT22;516;51.482;7.120;2023-04-16T03:01:19;8.50;99.90
1055;DHT22;516;51.482;7.120;2023-04-16T03:07:07;8.50;99.90
1055;DHT22;516;51.482;7.120;2023-04-16T03:12:55;8.50;99.90
1055;DHT22;516;51.482;7.120;2023-04-16T03:18:43;8.50;99.90
1055;DHT22;516;51.482;7.120;2023-04-16T03:24:30;8.50;99.90
1055;DHT22;516;51.482;7.120;2023-04-16T03:30:18;8.50;99.90
1055;DHT22;516;51.482;7.120;2023-04-16T03:36:04;8.50;99.90
1055;DHT22;516;51.482;7.120;2023-04-16T03:41:52;8.60;99.90
1055;DHT22;516;51.482;7.120;2023-04-16T03:47:39;8.60;99.90
1055;DHT22;516;51.482;7.120;2023-04-16T03:53:28;8.60;99.90
1055;DHT22;516;51.482;7.120;2023-04-16T03:59:15;8.60;99.90
1055;DHT22;516;51.482;7.120;2023-04-16T04:05:03;8.60;99.90
1055;DHT22;516;51.482;7.120;2023-04-16T04:10:51;8.60;99.90
1055;DHT22;516;51.482;7.120;2023-04-16T04:16:39;8.60;99.90
1055;DHT22;516;51.482;7.120;2023-04-16T04:22:26;8.60;99.90
1055;DHT22;516;51.482;7.120;2023-04-16T04:28:14;8.60;99.90
1055;DHT22;516;51.482;7.120;2023-04-16T04:43:58;8.70;99.90
1055;DHT22;516;51.482;7.120;2023-04-16T04:49:46;8.70;99.90
1055;DHT22;516;51.482;7.120;2023-04-16T04:55:34;8.80;99.90
1055;DHT22;516;51.482;7.120;2023-04-16T05:01:21;8.80;99.90
1055;DHT22;516;51.482;7.120;2023-04-16T05:07:09;8.90;99.90
1055;DHT22;516;51.482;7.120;2023-04-16T05:12:57;8.80;99.90
1055;DHT22;516;51.482;7.120;2023-04-16T05:18:45;8.90;99.90
1055;DHT22;516;51.482;7.120;2023-04-16T05:24:32;8.90;99.90
1055;DHT22;516;51.482;7.120;2023-04-16T05:30:20;8.90;99.90
1055;DHT22;516;51.482;7.120;2023-04-16T05:36:04;8.90;99.90
1055;DHT22;516;51.482;7.120;2023-04-16T05:41:52;9.00;99.90
1055;DHT22;516;51.482;7.120;2023-04-16T05:47:40;8.90;99.90
1055;DHT22;516;51.482;7.120;2023-04-16T05:53:27;9.00;99.90
1055;DHT22;516;51.482;7.120;2023-04-16T05:59:16;9.00;99.90
1055;DHT22;516;51.482;7.120;2023-04-16T06:05:03;9.00;99.90
1055;DHT22;516;51.482;7.120;2023-04-16T06:10:52;9.00;99.90
1055;DHT22;516;51.482;7.120;2023-04-16T06:16:40;9.00;99.90
1055;DHT22;516;51.482;7.120;2023-04-16T06:22:28;9.00;99.90
1055;DHT22;516;51.482;7.120;2023-04-16T06:28:15;9.00;99.90
1055;DHT22;516;51.482;7.120;2023-04-16T06:43:56;9.20;99.90
1055;DHT22;516;51.482;7.120;2023-04-16T06:49:44;9.20;99.90
1055;DHT22;516;51.482;7.120;2023-04-16T06:55:32;9.30;99.90
1055;DHT22;516;51.482;7.120;2023-04-16T07:01:01;9.40;99.90
1055;DHT22;516;51.482;7.120;2023-04-16T07:06:48;9.50;99.90
1055;DHT22;516;51.482;7.120;2023-04-16T07:12:36;9.50;99.90
1055;DHT22;516;51.482;7.120;2023-04-16T07:18:24;9.80;99.90
1055;DHT22;516;51.482;7.120;2023-04-16T07:24:12;9.90;99.90
1055;DHT22;516;51.482;7.120;2023-04-16T07:30:00;10.00;99.90
1055;DHT22;516;51.482;7.120;2023-04-16T07:35:47;9.90;99.90
1055;DHT22;516;51.482;7.120;2023-04-16T07:41:35;9.80;99.90
1055;DHT22;516;51.482;7.120;2023-04-16T07:47:23;9.80;99.90
1055;DHT22;516;51.482;7.120;2023-04-16T07:53:12;9.80;99.90
1055;DHT22;516;51.482;7.120;2023-04-16T07:59:00;9.90;99.90
1055;DHT22;516;51.482;7.120;2023-04-16T08:04:48;10.00;99.90
1055;DHT22;516;51.482;7.120;2023-04-16T08:10:36;10.20;99.90
1055;DHT22;516;51.482;7.120;2023-04-16T08:16:23;10.30;99.90
1055;DHT22;516;51.482;7.120;2023-04-16T08:22:12;10.50;99.90
1055;DHT22;516;51.482;7.120;2023-04-16T08:27:59;10.70;99.90
1055;DHT22;516;51.482;7.120;2023-04-16T08:40:31;10.60;99.90
1055;DHT22;516;51.482;7.120;2023-04-16T08:46:24;10.60;99.90
1055;DHT22;516;51.482;7.120;2023-04-16T08:52:15;10.90;99.90
1055;DHT22;516;51.482;7.120;2023-04-16T08:58:12;10.70;99.90
1055;DHT22;516;51.482;7.120;2023-04-16T09:04:01;10.80;99.90
1055;DHT22;516;51.482;7.120;2023-04-16T09:09:50;11.00;99.90
1055;DHT22;516;51.482;7.120;2023-04-16T09:15:40;11.10;99.90
1055;DHT22;516;51.482;7.120;2023-04-16T09:21:28;11.00;99.90
1055;DHT22;516;51.482;7.120;2023-04-16T09:27:16;11.10;99.90
1055;DHT22;516;51.482;7.120;2023-04-16T09:33:20;11.10;99.90
1055;DHT22;516;51.482;7.120;2023-04-16T09:39:18;11.10;99.90
1055;DHT22;516;51.482;7.120;2023-04-16T09:45:30;11.30;99.90
1055;DHT22;516;51.482;7.120;2023-04-16T09:51:17;11.60;99.90
1055;DHT22;516;51.482;7.120;2023-04-16T09:57:05;11.80;99.90
1055;DHT22;516;51.482;7.120;2023-04-16T10:15:55;12.20;99.90
1055;DHT22;516;51.482;7.120;2023-04-16T10:21:44;12.50;99.90
1055;DHT22;516;51.482;7.120;2023-04-16T10:27:32;12.60;99.90
1055;DHT22;516;51.482;7.120;2023-04-16T10:33:24;12.70;99.90
1055;DHT22;516;51.482;7.120;2023-04-16T10:39:19;12.90;99.90
1055;DHT22;516;51.482;7.120;2023-04-16T10:45:10;13.80;99.90
1055;DHT22;516;51.482;7.120;2023-04-16T10:50:57;14.40;91.50
1055;DHT22;516;51.482;7.120;2023-04-16T10:56:46;13.40;97.00
1055;DHT22;516;51.482;7.120;2023-04-16T11:02:34;14.20;92.10
1055;DHT22;516;51.482;7.120;2023-04-16T11:08:22;14.70;66.50
1055;DHT22;516;51.482;7.120;2023-04-16T11:14:10;14.40;76.50
1055;DHT22;516;51.482;7.120;2023-04-16T11:19:59;14.10;78.00
1055;DHT22;516;51.482;7.120;2023-04-16T11:25:47;14.30;84.30
1055;DHT22;516;51.482;7.120;2023-04-16T11:31:35;13.90;85.20
1055;DHT22;516;51.482;7.120;2023-04-16T11:37:36;13.50;93.70
1055;DHT22;516;51.482;7.120;2023-04-16T11:43:25;13.30;94.80
1055;DHT22;516;51.482;7.120;2023-04-16T11:49:13;13.30;93.40
1055;DHT22;516;51.482;7.120;2023-04-16T11:55:03;13.20;97.10
1055;DHT22;516;51.482;7.120;2023-04-16T12:00:51;13.50;94.40
1055;DHT22;516;51.482;7.120;2023-04-16T12:07:12;13.30;95.20
1055;DHT22;516;51.482;7.120;2023-04-16T12:13:13;13.20;95.50
1055;DHT22;516;51.482;7.120;2023-04-16T12:19:02;13.40;95.00
1055;DHT22;516;51.482;7.120;2023-04-16T12:24:55;13.50;84.70
1055;DHT22;516;51.482;7.120;2023-04-16T12:30:49;13.90;87.60
1055;DHT22;516;51.482;7.120;2023-04-16T12:33:36;13.70;82.30
1055;DHT22;516;51.482;7.120;2023-04-16T12:42:40;13.80;85.10
1055;DHT22;516;51.482;7.120;2023-04-16T12:48:28;14.00;77.00
1055;DHT22;516;51.482;7.120;2023-04-16T12:54:16;14.40;71.00
1055;DHT22;516;51.482;7.120;2023-04-16T13:00:04;14.70;64.50
1055;DHT22;516;51.482;7.120;2023-04-16T13:05:53;14.60;52.50
1055;DHT22;516;51.482;7.120;2023-04-16T13:11:40;14.90;55.40
1055;DHT22;516;51.482;7.120;2023-04-16T13:17:28;14.70;60.80
1055;DHT22;516;51.482;7.120;2023-04-16T13:23:16;14.20;67.90
1055;DHT22;516;51.482;7.120;2023-04-16T13:29:04;14.50;70.50
1055;DHT22;516;51.482;7.120;2023-04-16T13:38:14;15.10;61.20
1055;DHT22;516;51.482;7.120;2023-04-16T13:44:02;14.90;64.50
1055;DHT22;516;51.482;7.120;2023-04-16T13:49:50;14.60;75.60
1055;DHT22;516;51.482;7.120;2023-04-16T13:55:37;14.10;81.90
1055;DHT22;516;51.482;7.120;2023-04-16T14:01:25;13.70;89.40
1055;DHT22;516;51.482;7.120;2023-04-16T14:07:13;13.80;85.90
1055;DHT22;516;51.482;7.120;2023-04-16T14:13:01;13.90;78.90
1055;DHT22;516;51.482;7.120;2023-04-16T14:18:49;13.80;77.40
1055;DHT22;516;51.482;7.120;2023-04-16T14:24:38;14.00;77.00
1055;DHT22;516;51.482;7.120;2023-04-16T14:30:26;14.10;77.90
1055;DHT22;516;51.482;7.120;2023-04-16T14:36:04;14.30;70.00
1055;DHT22;516;51.482;7.120;2023-04-16T14:41:52;14.50;73.70
1055;DHT22;516;51.482;7.120;2023-04-16T14:47:40;14.50;61.70
1055;DHT22;516;51.482;7.120;2023-04-16T14:53:32;14.60;57.70
1055;DHT22;516;51.482;7.120;2023-04-16T14:59:20;15.10;49.90
1055;DHT22;516;51.482;7.120;2023-04-16T15:05:08;15.30;44.70
1055;DHT22;516;51.482;7.120;2023-04-16T15:10:57;14.80;43.90
1055;DHT22;516;51.482;7.120;2023-04-16T15:16:45;15.10;47.40
1055;DHT22;516;51.482;7.120;2023-04-16T15:22:33;15.40;41.20
1055;DHT22;516;51.482;7.120;2023-04-16T15:28:21;15.20;40.20
1055;DHT22;516;51.482;7.120;2023-04-16T15:38:11;15.20;40.40
1055;DHT22;516;51.482;7.120;2023-04-16T15:43:59;15.10;41.10
1055;DHT22;516;51.482;7.120;2023-04-16T15:49:46;14.70;42.70
1055;DHT22;516;51.482;7.120;2023-04-16T15:55:34;15.20;37.90
1055;DHT22;516;51.482;7.120;2023-04-16T16:01:22;14.80;36.30
1055;DHT22;516;51.482;7.120;2023-04-16T16:07:10;15.40;35.20
1055;DHT22;516;51.482;7.120;2023-04-16T16:12:58;15.60;29.00
1055;DHT22;516;51.482;7.120;2023-04-16T16:18:51;15.00;28.20
1055;DHT22;516;51.482;7.120;2023-04-16T16:24:39;14.70;34.60
1055;DHT22;516;51.482;7.120;2023-04-16T16:30:27;14.60;37.90
1055;DHT22;516;51.482;7.120;2023-04-16T16:36:09;14.70;40.60
1055;DHT22;516;51.482;7.120;2023-04-16T16:41:56;14.70;38.70
1055;DHT22;516;51.482;7.120;2023-04-16T16:47:44;14.50;42.50
1055;DHT22;516;51.482;7.120;2023-04-16T16:53:32;14.30;46.30
1055;DHT22;516;51.482;7.120;2023-04-16T16:59:19;14.10;48.40
1055;DHT22;516;51.482;7.120;2023-04-16T17:05:08;14.00;51.10
1055;DHT22;516;51.482;7.120;2023-04-16T17:10:56;14.00;57.60
1055;DHT22;516;51.482;7.120;2023-04-16T17:16:43;13.80;56.50
1055;DHT22;516;51.482;7.120;2023-04-16T17:22:33;13.60;56.70
1055;DHT22;516;51.482;7.120;2023-04-16T17:28:20;13.50;64.80
1055;DHT22;516;51.482;7.120;2023-04-16T17:31:05;13.50;71.90
1055;DHT22;516;51.482;7.120;2023-04-16T17:33:31;13.40;91.50
1055;DHT22;516;51.482;7.120;2023-04-16T17:39:18;13.20;99.90
1055;DHT22;516;51.482;7.120;2023-04-16T17:45:07;13.00;99.90
1055;DHT22;516;51.482;7.120;2023-04-16T17:50:56;12.80;99.90
1055;DHT22;516;51.482;7.120;2023-04-16T17:56:43;12.70;99.90
1055;DHT22;516;51.482;7.120;2023-04-16T18:02:31;12.60;99.90
1055;DHT22;516;51.482;7.120;2023-04-16T18:08:19;12.50;99.90
1055;DHT22;516;51.482;7.120;2023-04-16T18:14:07;12.40;99.90
1055;DHT22;516;51.482;7.120;2023-04-16T18:19:56;12.30;99.90
1055;DHT22;516;51.482;7.120;2023-04-16T18:25:44;12.20;99.90
1055;DHT22;516;51.482;7.120;2023-04-16T18:31:32;12.10;99.90
1055;DHT22;516;51.482;7.120;2023-04-16T18:37:19;12.10;99.90
1055;DHT22;516;51.482;7.120;2023-04-16T18:43:07;12.00;99.90
1055;DHT22;516;51.482;7.120;2023-04-16T18:48:55;12.00;99.90
1055;DHT22;516;51.482;7.120;2023-04-16T18:54:43;12.00;99.90
1055;DHT22;516;51.482;7.120;2023-04-16T19:00:31;11.90;99.90
1055;DHT22;516;51.482;7.120;2023-04-16T19:06:18;11.80;99.90
1055;DHT22;516;51.482;7.120;2023-04-16T19:12:06;11.90;99.90
1055;DHT22;516;51.482;7.120;2023-04-16T19:17:54;11.90;99.90
1055;DHT22;516;51.482;7.120;2023-04-16T19:23:42;11.90;99.90
1055;DHT22;516;51.482;7.120;2023-04-16T19:29:33;11.80;99.90
1055;DHT22;516;51.482;7.120;2023-04-16T19:38:43;11.70;99.90
1055;DHT22;516;51.482;7.120;2023-04-16T19:44:30;11.70;99.90
1055;DHT22;516;51.482;7.120;2023-04-16T19:50:18;11.70;99.90
1055;DHT22;516;51.482;7.120;2023-04-16T19:56:06;11.70;99.90
1055;DHT22;516;51.482;7.120;2023-04-16T20:01:54;11.60;99.90
1055;DHT22;516;51.482;7.120;2023-04-16T20:07:42;11.60;99.90
1055;DHT22;516;51.482;7.120;2023-04-16T20:13:29;11.50;99.90
1055;DHT22;516;51.482;7.120;2023-04-16T20:19:17;11.50;99.90
1055;DHT22;516;51.482;7.120;2023-04-16T20:25:06;11.40;99.90
1055;DHT22;516;51.482;7.120;2023-04-16T20:30:55;11.30;99.90
1055;DHT22;516;51.482;7.120;2023-04-16T20:36:34;11.30;99.90
1055;DHT22;516;51.482;7.120;2023-04-16T20:42:22;11.30;99.90
1055;DHT22;516;51.482;7.120;2023-04-16T20:48:12;11.20;99.90
1055;DHT22;516;51.482;7.120;2023-04-16T20:54:00;11.10;99.90
1055;DHT22;516;51.482;7.120;2023-04-16T20:59:49;11.00;99.90
1055;DHT22;516;51.482;7.120;2023-04-16T21:05:36;11.00;99.90
1055;DHT22;516;51.482;7.120;2023-04-16T21:11:24;10.90;99.90
1055;DHT22;516;51.482;7.120;2023-04-16T21:17:12;10.90;99.90
1055;DHT22;516;51.482;7.120;2023-04-16T21:23:00;10.90;99.90
1055;DHT22;516;51.482;7.120;2023-04-16T21:28:49;10.80;99.90
1055;DHT22;516;51.482;7.120;2023-04-16T21:44:24;10.60;99.90
1055;DHT22;516;51.482;7.120;2023-04-16T21:50:12;10.60;99.90
1055;DHT22;516;51.482;7.120;2023-04-16T21:55:59;10.70;99.90
1055;DHT22;516;51.482;7.120;2023-04-16T22:01:47;10.60;99.90
1055;DHT22;516;51.482;7.120;2023-04-16T22:07:35;10.60;99.90
1055;DHT22;516;51.482;7.120;2023-04-16T22:13:23;10.60;99.90
1055;DHT22;516;51.482;7.120;2023-04-16T22:19:12;10.60;99.90
1055;DHT22;516;51.482;7.120;2023-04-16T22:25:00;10.60;99.90
1055;DHT22;516;51.482;7.120;2023-04-16T22:30:48;10.60;99.90
1055;DHT22;516;51.482;7.120;2023-04-16T22:36:34;10.50;99.90
1055;DHT22;516;51.482;7.120;2023-04-16T22:42:21;10.50;99.90
1055;DHT22;516;51.482;7.120;2023-04-16T22:48:10;10.50;99.90
1055;DHT22;516;51.482;7.120;2023-04-16T22:53:58;10.50;99.90
1055;DHT22;516;51.482;7.120;2023-04-16T22:59:46;10.50;99.90
1055;DHT22;516;51.482;7.120;2023-04-16T23:05:33;10.40;99.90
1055;DHT22;516;51.482;7.120;2023-04-16T23:11:22;10.40;99.90
1055;DHT22;516;51.482;7.120;2023-04-16T23:17:11;10.40;99.90
1055;DHT22;516;51.482;7.120;2023-04-16T23:22:59;10.40;99.90
1055;DHT22;516;51.482;7.120;2023-04-16T23:28:47;10.40;99.90
1055;DHT22;516;51.482;7.120;2023-04-16T23:44:28;10.40;99.90
1055;DHT22;516;51.482;7.120;2023-04-16T23:50:16;10.40;99.90
1055;DHT22;516;51.482;7.120;2023-04-16T23:56:04;10.40;99.90
